UAE2YA OMDB-LOWW
Flight info
| Callsign | UAE2YA |
|---|---|
| Flight time | N/A |
| Altitude | 38000 |
| Route | OMDB/30R ANVIX L223 TARDI N629 BOTAM Y855 LAKLU Q204 NALKI G652 TOKRA DCT ALROK DCT BOSOB DCT ITRUX Y511 LAKMI/N0489F400 Y511 PMA Z712 WEJ L677 GESON Q777 RASDA DCT OTHON DCT VAXOS DCT BANRO UG80 IMR UN127 LMO DCT EVIVI L863 OKANA DCT DONIV DCT PARAK DCT BALUX DCT TORNO DCT NATEX NATEX2W LOWW/33 |
| Aircraft | A359/H-SDE2E3GHIJ3J4J5LM1ORWXY/LB1D1 |
Departure
| Time | 2026-04-22 15:53 |
|---|---|
| Airport | Dubai International Airport (OMDB) |
Arrival
| Time | N/A |
|---|---|
| Airport | Vienna International Airport (LOWW) |
| Time | Latitude | Longitude | Altitude | Speed | Heading |
|---|---|---|---|---|---|
| 2026-04-22 15:10 | 25.24770 | 55.36502 | 16 ft | 0 kts | 211° |
| 2026-04-22 15:35 | 25.24787 | 55.36514 | 13 ft | 3 kts | 211° |
| 2026-04-22 15:35 | 25.24803 | 55.36527 | 13 ft | 3 kts | 230° |
| 2026-04-22 15:35 | 25.24814 | 55.36546 | 17 ft | 3 kts | 253° |
| 2026-04-22 15:35 | 25.24818 | 55.36567 | 16 ft | 3 kts | 254° |
| 2026-04-22 15:36 | 25.24820 | 55.36589 | 16 ft | 3 kts | 277° |
| 2026-04-22 15:36 | 25.24817 | 55.36610 | 16 ft | 3 kts | 291° |
| 2026-04-22 15:36 | 25.24813 | 55.36618 | 15 ft | 0 kts | 297° |
| 2026-04-22 15:40 | 25.24818 | 55.36609 | 15 ft | 3 kts | 299° |
| 2026-04-22 15:40 | 25.24834 | 55.36577 | 15 ft | 7 kts | 300° |
| 2026-04-22 15:40 | 25.24869 | 55.36514 | 15 ft | 12 kts | 302° |
| 2026-04-22 15:40 | 25.24922 | 55.36419 | 15 ft | 17 kts | 301° |
| 2026-04-22 15:41 | 25.24988 | 55.36301 | 15 ft | 19 kts | 301° |
| 2026-04-22 15:41 | 25.25059 | 55.36173 | 15 ft | 20 kts | 301° |
| 2026-04-22 15:41 | 25.25131 | 55.36042 | 15 ft | 20 kts | 301° |
| 2026-04-22 15:41 | 25.25207 | 55.35906 | 15 ft | 21 kts | 302° |
| 2026-04-22 15:42 | 25.25283 | 55.35767 | 15 ft | 21 kts | 301° |
| 2026-04-22 15:42 | 25.25361 | 55.35626 | 15 ft | 22 kts | 302° |
| 2026-04-22 15:42 | 25.25441 | 55.35483 | 15 ft | 22 kts | 301° |
| 2026-04-22 15:42 | 25.25517 | 55.35345 | 15 ft | 19 kts | 301° |
| 2026-04-22 15:43 | 25.25568 | 55.35254 | 15 ft | 10 kts | 301° |
| 2026-04-22 15:43 | 25.25586 | 55.35222 | 15 ft | 0 kts | 301° |
| 2026-04-22 15:44 | 25.25588 | 55.35218 | 15 ft | 1 kts | 301° |
| 2026-04-22 15:44 | 25.25603 | 55.35190 | 16 ft | 6 kts | 301° |
| 2026-04-22 15:44 | 25.25644 | 55.35155 | 16 ft | 9 kts | 340° |
| 2026-04-22 15:44 | 25.25707 | 55.35177 | 16 ft | 12 kts | 31° |
| 2026-04-22 15:45 | 25.25788 | 55.35232 | 13 ft | 15 kts | 31° |
| 2026-04-22 15:45 | 25.25873 | 55.35290 | 16 ft | 13 kts | 31° |
| 2026-04-22 15:45 | 25.25935 | 55.35333 | 16 ft | 0 kts | 34° |
| 2026-04-22 15:46 | 25.25943 | 55.35339 | 16 ft | 4 kts | 35° |
| 2026-04-22 15:46 | 25.25972 | 55.35375 | 16 ft | 9 kts | 57° |
| 2026-04-22 15:46 | 25.25993 | 55.35454 | 16 ft | 12 kts | 84° |
| 2026-04-22 15:46 | 25.25975 | 55.35553 | 15 ft | 14 kts | 117° |
| 2026-04-22 15:47 | 25.25920 | 55.35656 | 15 ft | 17 kts | 121° |
| 2026-04-22 15:47 | 25.25856 | 55.35772 | 15 ft | 19 kts | 122° |
| 2026-04-22 15:47 | 25.25784 | 55.35900 | 15 ft | 21 kts | 122° |
| 2026-04-22 15:47 | 25.25706 | 55.36040 | 15 ft | 22 kts | 121° |
| 2026-04-22 15:48 | 25.25625 | 55.36185 | 15 ft | 22 kts | 121° |
| 2026-04-22 15:48 | 25.25543 | 55.36334 | 15 ft | 23 kts | 121° |
| 2026-04-22 15:48 | 25.25459 | 55.36486 | 15 ft | 23 kts | 121° |
| 2026-04-22 15:48 | 25.25373 | 55.36641 | 15 ft | 24 kts | 121° |
| 2026-04-22 15:49 | 25.25286 | 55.36800 | 15 ft | 24 kts | 121° |
| 2026-04-22 15:49 | 25.25201 | 55.36957 | 15 ft | 23 kts | 121° |
| 2026-04-22 15:49 | 25.25115 | 55.37110 | 16 ft | 23 kts | 123° |
| 2026-04-22 15:49 | 25.25030 | 55.37264 | 16 ft | 24 kts | 121° |
| 2026-04-22 15:50 | 25.24942 | 55.37419 | 16 ft | 24 kts | 121° |
| 2026-04-22 15:50 | 25.24863 | 55.37563 | 16 ft | 21 kts | 121° |
| 2026-04-22 15:50 | 25.24784 | 55.37706 | 17 ft | 22 kts | 121° |
| 2026-04-22 15:50 | 25.24706 | 55.37849 | 17 ft | 19 kts | 121° |
| 2026-04-22 15:51 | 25.24683 | 55.37954 | 17 ft | 11 kts | 59° |
| 2026-04-22 15:51 | 25.24739 | 55.38002 | 17 ft | 11 kts | 33° |
| 2026-04-22 15:51 | 25.24809 | 55.38008 | 17 ft | 11 kts | 334° |
| 2026-04-22 15:51 | 25.24862 | 55.37929 | 17 ft | 16 kts | 302° |
| 2026-04-22 15:52 | 25.24980 | 55.37714 | 17 ft | 60 kts | 301° |
| 2026-04-22 15:52 | 25.25307 | 55.37125 | 16 ft | 118 kts | 301° |
| 2026-04-22 15:52 | 25.25825 | 55.36193 | 16 ft | 167 kts | 302° |
| 2026-04-22 15:52 | 25.26478 | 55.35041 | 462 ft | 174 kts | 303° |
| 2026-04-22 15:53 | 25.27075 | 55.33925 | 1192 ft | 163 kts | 301° |
| 2026-04-22 15:53 | 25.27564 | 55.32834 | 1817 ft | 154 kts | 296° |
| 2026-04-22 15:53 | 25.28001 | 55.31767 | 2108 ft | 154 kts | 298° |
| 2026-04-22 15:53 | 25.28534 | 55.30674 | 2233 ft | 170 kts | 297° |
| 2026-04-22 15:54 | 25.28923 | 55.29385 | 2392 ft | 184 kts | 281° |
| 2026-04-22 15:54 | 25.28880 | 55.27952 | 2637 ft | 193 kts | 253° |
| 2026-04-22 15:54 | 25.28300 | 55.26588 | 2976 ft | 197 kts | 243° |
| 2026-04-22 15:54 | 25.27662 | 55.25218 | 3305 ft | 205 kts | 243° |
| 2026-04-22 15:55 | 25.27044 | 55.23784 | 3733 ft | 206 kts | 246° |
| 2026-04-22 15:55 | 25.26496 | 55.22334 | 4227 ft | 204 kts | 249° |
| 2026-04-22 15:55 | 25.25997 | 55.20866 | 4690 ft | 204 kts | 248° |
| 2026-04-22 15:55 | 25.25393 | 55.19417 | 5016 ft | 212 kts | 243° |
| 2026-04-22 15:56 | 25.24652 | 55.17980 | 5358 ft | 219 kts | 238° |
| 2026-04-22 15:56 | 25.23547 | 55.16796 | 5674 ft | 229 kts | 208° |
| 2026-04-22 15:56 | 25.21958 | 55.16507 | 6021 ft | 241 kts | 174° |
| 2026-04-22 15:56 | 25.20308 | 55.16888 | 6465 ft | 245 kts | 170° |
| 2026-04-22 15:57 | 25.18642 | 55.17359 | 6872 ft | 250 kts | 164° |
| 2026-04-22 15:57 | 25.17149 | 55.18415 | 7238 ft | 264 kts | 134° |
| 2026-04-22 15:57 | 25.16308 | 55.20252 | 7608 ft | 275 kts | 109° |
| 2026-04-22 15:57 | 25.15730 | 55.22240 | 8051 ft | 278 kts | 113° |
| 2026-04-22 15:58 | 25.14946 | 55.24208 | 8411 ft | 284 kts | 119° |
| 2026-04-22 15:58 | 25.14023 | 55.26176 | 8756 ft | 292 kts | 121° |
| 2026-04-22 15:58 | 25.13039 | 55.28167 | 9100 ft | 300 kts | 121° |
| 2026-04-22 15:58 | 25.12062 | 55.30225 | 9611 ft | 303 kts | 119° |
| 2026-04-22 15:59 | 25.11119 | 55.32296 | 10157 ft | 302 kts | 119° |
| 2026-04-22 15:59 | 25.10220 | 55.34407 | 10624 ft | 305 kts | 117° |
| 2026-04-22 15:59 | 25.09352 | 55.36551 | 11089 ft | 308 kts | 116° |
| 2026-04-22 15:59 | 25.08472 | 55.38718 | 11578 ft | 310 kts | 116° |
| 2026-04-22 16:00 | 25.07874 | 55.40181 | 11911 ft | 311 kts | 117° |
| 2026-04-22 16:00 | 25.06714 | 55.43102 | 12453 ft | 319 kts | 115° |
| 2026-04-22 16:00 | 25.05835 | 55.45383 | 12686 ft | 330 kts | 115° |
| 2026-04-22 16:00 | 25.04924 | 55.47753 | 12937 ft | 340 kts | 115° |
| 2026-04-22 16:01 | 25.03985 | 55.50193 | 13157 ft | 350 kts | 115° |
| 2026-04-22 16:01 | 25.03012 | 55.52689 | 13412 ft | 359 kts | 117° |
| 2026-04-22 16:01 | 25.01739 | 55.55091 | 13642 ft | 366 kts | 126° |
| 2026-04-22 16:01 | 25.00236 | 55.57395 | 13826 ft | 374 kts | 129° |
| 2026-04-22 16:02 | 24.98619 | 55.59685 | 14016 ft | 382 kts | 131° |
| 2026-04-22 16:02 | 24.96925 | 55.61981 | 14194 ft | 390 kts | 131° |
| 2026-04-22 16:02 | 24.95175 | 55.64312 | 14377 ft | 397 kts | 132° |
| 2026-04-22 16:02 | 24.93399 | 55.66675 | 14619 ft | 403 kts | 131° |
| 2026-04-22 16:03 | 24.91607 | 55.69066 | 14901 ft | 407 kts | 131° |
| 2026-04-22 16:03 | 24.89808 | 55.71481 | 15197 ft | 410 kts | 131° |
| 2026-04-22 16:03 | 24.87997 | 55.73920 | 15514 ft | 413 kts | 131° |
| 2026-04-22 16:03 | 24.86176 | 55.76378 | 15828 ft | 415 kts | 131° |
| 2026-04-22 16:04 | 24.84345 | 55.78851 | 16162 ft | 418 kts | 131° |
| 2026-04-22 16:04 | 24.82504 | 55.81339 | 16503 ft | 420 kts | 131° |
| 2026-04-22 16:04 | 24.80651 | 55.83840 | 16847 ft | 422 kts | 131° |
| 2026-04-22 16:04 | 24.78790 | 55.86350 | 17186 ft | 425 kts | 131° |
| 2026-04-22 16:05 | 24.77553 | 55.88017 | 17413 ft | 426 kts | 131° |
| 2026-04-22 16:05 | 24.75035 | 55.91410 | 17878 ft | 429 kts | 131° |
| 2026-04-22 16:05 | 24.73140 | 55.93964 | 18187 ft | 432 kts | 131° |
| 2026-04-22 16:05 | 24.71234 | 55.96527 | 18480 ft | 434 kts | 131° |
| 2026-04-22 16:06 | 24.69317 | 55.99104 | 18750 ft | 436 kts | 131° |
| 2026-04-22 16:06 | 24.67392 | 56.01689 | 19029 ft | 438 kts | 131° |
| 2026-04-22 16:06 | 24.66110 | 56.03411 | 19217 ft | 440 kts | 131° |
| 2026-04-22 16:06 | 24.64172 | 56.06012 | 19488 ft | 441 kts | 131° |